Time;durP1;ratioP1;P1;durP2;ratioP2;P2;SDS_P1;SDS_P2;PMS_P1;PMS_P2;Temp;Humidity;BMP_temperature;BMP_pressure;BME280_temperature;BME280_humidity;BME280_pressure;Samples;Min_cycle;Max_cycle;Signal;HPM_P1;HPM_P2
2023/04/15 05:00:42;;;;;;;4.10;3.00;;;;;;;;;;1748646;28;20195;-68
2023/04/15 05:01:33;;;;;;;5.65;4.20;;;;;;;;;;1748675;28;20678;-69
2023/04/15 05:02:26;;;;;;;5.32;4.75;;;;;;;;;;1748610;28;20552;-69
2023/04/15 05:03:17;;;;;;;5.57;4.57;;;;;;;;;;1748632;28;20269;-68
2023/04/15 05:04:09;;;;;;;5.28;4.53;;;;;;;;;;1748712;28;20589;-69
2023/04/15 05:05:00;;;;;;;5.68;4.57;;;;;;;;;;1748546;28;20202;-68
2023/04/15 05:05:52;;;;;;;4.60;4.18;;;;;;;;;;1748712;28;20225;-69
2023/04/15 05:06:43;;;;;;;5.75;4.57;;;;;;;;;;1748232;28;20202;-68
2023/04/15 05:07:35;;;;;;;5.35;4.07;;;;;;;;;;1748554;28;20198;-68
2023/04/15 05:08:26;;;;;;;4.97;4.20;;;;;;;;;;1748560;28;20198;-68
2023/04/15 05:09:18;;;;;;;6.38;4.07;;;;;;;;;;1748532;28;20298;-69
2023/04/15 05:10:10;;;;;;;5.10;3.75;;;;;;;;;;1748407;28;20317;-69
2023/04/15 05:11:02;;;;;;;5.43;3.42;;;;;;;;;;1747908;28;20218;-68
2023/04/15 05:11:53;;;;;;;3.58;3.22;;;;;;;;;;1748361;28;20215;-68
2023/04/15 05:12:45;;;;;;;5.18;3.63;;;;;;;;;;1748148;28;20214;-69
2023/04/15 05:13:37;;;;;;;4.88;3.45;;;;;;;;;;1748196;28;20191;-68
2023/04/15 05:14:29;;;;;;;3.63;3.33;;;;;;;;;;1748610;28;20283;-69
2023/04/15 05:15:21;;;;;;;5.00;3.60;;;;;;;;;;1748106;28;20203;-69
2023/04/15 05:16:14;;;;;;;4.85;3.80;;;;;;;;;;1748386;28;20182;-69
2023/04/15 05:17:05;;;;;;;4.03;3.70;;;;;;;;;;1748462;28;20472;-68
2023/04/15 05:17:57;;;;;;;11.60;3.90;;;;;;;;;;1748447;28;20218;-69
2023/04/15 05:18:48;;;;;;;4.80;3.35;;;;;;;;;;1748595;28;20202;-68
2023/04/15 05:19:40;;;;;;;5.13;3.50;;;;;;;;;;1748122;28;20202;-69
2023/04/15 05:20:31;;;;;;;5.97;3.53;;;;;;;;;;1748429;28;20226;-69
2023/04/15 05:21:24;;;;;;;6.25;3.97;;;;;;;;;;1748439;28;20199;-68
2023/04/15 05:22:15;;;;;;;6.25;3.65;;;;;;;;;;1748160;28;20233;-68
2023/04/15 05:23:08;;;;;;;7.13;4.10;;;;;;;;;;1747982;28;20715;-68
2023/04/15 05:23:59;;;;;;;5.40;4.18;;;;;;;;;;1747928;28;20549;-68
2023/04/15 05:24:51;;;;;;;6.15;3.58;;;;;;;;;;1748158;28;20194;-68
2023/04/15 05:25:42;;;;;;;7.07;3.70;;;;;;;;;;1748507;28;20214;-69
2023/04/15 05:26:34;;;;;;;4.03;3.50;;;;;;;;;;1748122;28;20206;-68
2023/04/15 05:27:25;;;;;;;3.60;3.30;;;;;;;;;;1748314;28;20470;-68
2023/04/15 05:28:17;;;;;;;6.85;4.10;;;;;;;;;;1748479;28;20197;-68
2023/04/15 05:29:09;;;;;;;4.55;3.70;;;;;;;;;;1748460;28;20199;-68
2023/04/15 05:30:01;;;;;;;6.07;3.83;;;;;;;;;;1748273;28;20702;-68
2023/04/15 05:30:52;;;;;;;7.18;3.30;;;;;;;;;;1747872;28;20577;-68
2023/04/15 05:31:45;;;;;;;9.98;5.97;;;;;;;;;;1748462;28;20198;-68
2023/04/15 05:32:36;;;;;;;10.40;7.05;;;;;;;;;;1748296;28;20226;-68
2023/04/15 05:33:28;;;;;;;20.80;9.68;;;;;;;;;;1748420;28;20259;-68
2023/04/15 05:34:19;;;;;;;14.50;9.50;;;;;;;;;;1748440;28;20661;-68
2023/04/15 05:35:11;;;;;;;14.35;8.77;;;;;;;;;;1748477;28;20205;-68
2023/04/15 05:36:02;;;;;;;14.35;8.82;;;;;;;;;;1748399;28;20202;-68
2023/04/15 05:36:55;;;;;;;8.65;6.50;;;;;;;;;;1748048;28;20190;-68
2023/04/15 05:37:46;;;;;;;13.45;7.00;;;;;;;;;;1748460;28;20253;-68
2023/04/15 05:38:38;;;;;;;11.65;7.10;;;;;;;;;;1748365;28;20323;-68
2023/04/15 05:39:31;;;;;;;8.25;5.90;;;;;;;;;;1748376;28;20199;-68
2023/04/15 05:40:23;;;;;;;8.75;5.45;;;;;;;;;;1748008;28;20657;-68
2023/04/15 05:41:15;;;;;;;10.75;7.70;;;;;;;;;;1748378;28;20206;-68
2023/04/15 05:42:07;;;;;;;11.27;7.20;;;;;;;;;;1748330;28;20195;-68
2023/04/15 05:42:58;;;;;;;17.80;9.48;;;;;;;;;;1748391;28;20194;-69
2023/04/15 05:43:50;;;;;;;20.20;11.10;;;;;;;;;;1748255;28;20194;-68
2023/04/15 05:44:41;;;;;;;17.70;13.15;;;;;;;;;;1748319;28;20209;-68
2023/04/15 05:45:33;;;;;;;25.50;15.23;;;;;;;;;;1748462;28;20205;-68
2023/04/15 05:46:24;;;;;;;25.20;15.63;;;;;;;;;;1747997;28;20650;-68
2023/04/15 05:47:18;;;;;;;25.27;17.42;;;;;;;;;;1746318;28;20222;-68
2023/04/15 05:48:09;;;;;;;34.45;20.38;;;;;;;;;;1743721;28;20576;-68
2023/04/15 05:49:01;;;;;;;29.25;18.25;;;;;;;;;;1744800;28;20195;-68
2023/04/15 05:49:52;;;;;;;22.23;13.25;;;;;;;;;;1744361;28;20310;-68
2023/04/15 05:50:44;;;;;;;15.45;9.48;;;;;;;;;;1747865;28;20227;-68
2023/04/15 05:51:35;;;;;;;19.52;12.57;;;;;;;;;;1748175;28;20237;-68
2023/04/15 05:52:27;;;;;;;20.75;12.40;;;;;;;;;;1742026;28;20202;-68
2023/04/15 05:53:18;;;;;;;19.80;12.63;;;;;;;;;;1743690;28;20206;-67
2023/04/15 05:54:10;;;;;;;22.92;13.43;;;;;;;;;;1740974;28;20199;-67
2023/04/15 05:55:01;;;;;;;15.95;10.93;;;;;;;;;;1741042;28;20199;-68
2023/04/15 05:55:53;;;;;;;18.23;9.45;;;;;;;;;;1740259;28;20198;-68
2023/04/15 05:56:44;;;;;;;12.68;7.40;;;;;;;;;;1740117;28;20210;-68
2023/04/15 05:57:36;;;;;;;8.07;4.75;;;;;;;;;;1743936;28;20609;-69
2023/04/15 05:58:28;;;;;;;6.03;4.20;;;;;;;;;;1740199;28;20203;-67
2023/04/15 05:59:20;;;;;;;8.15;3.78;;;;;;;;;;1742837;28;20244;-68
2023/04/15 06:00:12;;;;;;;7.63;3.58;;;;;;;;;;1746291;28;20199;-69
2023/04/15 06:01:04;;;;;;;5.28;3.80;;;;;;;;;;1744770;28;20190;-68
2023/04/15 06:01:55;;;;;;;6.80;4.50;;;;;;;;;;1743238;28;20203;-68
2023/04/15 06:02:49;;;;;;;3.95;3.25;;;;;;;;;;1743264;28;20646;-69
2023/04/15 06:03:40;;;;;;;7.43;3.92;;;;;;;;;;1743180;28;20282;-68
2023/04/15 06:04:32;;;;;;;5.30;3.70;;;;;;;;;;1747693;28;20263;-68
2023/04/15 06:05:23;;;;;;;5.78;4.53;;;;;;;;;;1747620;28;20206;-68
2023/04/15 06:06:15;;;;;;;5.95;3.85;;;;;;;;;;1746532;28;20223;-69
2023/04/15 06:07:06;;;;;;;4.95;3.20;;;;;;;;;;1747603;28;20627;-67
2023/04/15 06:07:58;;;;;;;7.25;3.85;;;;;;;;;;1747880;28;20194;-68
2023/04/15 06:08:50;;;;;;;5.07;4.03;;;;;;;;;;1747375;28;20226;-67
2023/04/15 06:09:42;;;;;;;5.68;4.00;;;;;;;;;;1747738;28;20222;-68
2023/04/15 06:10:35;;;;;;;5.30;3.97;;;;;;;;;;1747589;28;20225;-68
2023/04/15 06:11:27;;;;;;;4.15;3.38;;;;;;;;;;1747602;28;20202;-68
2023/04/15 06:12:18;;;;;;;5.60;3.50;;;;;;;;;;1747690;28;20218;-68
2023/04/15 06:13:10;;;;;;;5.53;3.70;;;;;;;;;;1744806;28;20227;-68
2023/04/15 06:14:01;;;;;;;3.88;3.10;;;;;;;;;;1747026;28;20194;-68
2023/04/15 06:14:53;;;;;;;4.63;3.75;;;;;;;;;;1746457;28;20187;-68
2023/04/15 06:15:44;;;;;;;5.38;3.72;;;;;;;;;;1745774;28;20206;-68
2023/04/15 06:16:36;;;;;;;3.65;3.30;;;;;;;;;;1742360;28;20197;-68
2023/04/15 06:17:27;;;;;;;6.75;3.55;;;;;;;;;;1743660;28;20234;-68
2023/04/15 06:18:21;;;;;;;4.35;3.08;;;;;;;;;;1744332;28;20198;-67
2023/04/15 06:19:13;;;;;;;5.18;3.50;;;;;;;;;;1746400;28;20194;-69
2023/04/15 06:20:05;;;;;;;4.15;3.25;;;;;;;;;;1747645;28;20692;-69
2023/04/15 06:20:56;;;;;;;6.25;3.67;;;;;;;;;;1747552;28;20214;-67
2023/04/15 06:21:48;;;;;;;4.20;2.83;;;;;;;;;;1744334;28;20241;-68
2023/04/15 06:22:40;;;;;;;4.20;3.25;;;;;;;;;;1743522;28;20199;-68
2023/04/15 06:23:32;;;;;;;5.78;3.97;;;;;;;;;;1743453;28;20200;-68
2023/04/15 06:24:23;;;;;;;5.70;3.40;;;;;;;;;;1740702;28;20880;-67
2023/04/15 06:25:15;;;;;;;4.00;3.10;;;;;;;;;;1746205;28;20194;-67
2023/04/15 06:26:06;;;;;;;5.85;3.30;;;;;;;;;;1747389;28;20202;-68
2023/04/15 06:26:58;;;;;;;5.05;3.47;;;;;;;;;;1746665;28;20562;-67
2023/04/15 06:27:49;;;;;;;3.67;2.90;;;;;;;;;;1747651;28;20596;-66
2023/04/15 06:28:41;;;;;;;4.32;3.03;;;;;;;;;;1747652;28;20256;-68
2023/04/15 06:29:32;;;;;;;6.05;3.30;;;;;;;;;;1747605;28;20210;-67
2023/04/15 06:30:24;;;;;;;6.50;3.80;;;;;;;;;;1747469;28;20198;-68
2023/04/15 06:31:15;;;;;;;4.50;3.25;;;;;;;;;;1747435;28;20206;-67
2023/04/15 06:32:07;;;;;;;3.75;3.10;;;;;;;;;;1743095;28;20435;-67
2023/04/15 06:32:59;;;;;;;6.18;3.30;;;;;;;;;;1741630;28;20715;-67
2023/04/15 06:33:52;;;;;;;5.72;3.70;;;;;;;;;;1742192;28;20223;-68
2023/04/15 06:34:43;;;;;;;5.90;3.55;;;;;;;;;;1740056;28;20211;-68
2023/04/15 06:35:35;;;;;;;4.65;3.45;;;;;;;;;;1740398;28;20257;-68
2023/04/15 06:36:26;;;;;;;4.75;3.67;;;;;;;;;;1739924;28;20214;-68
2023/04/15 06:37:18;;;;;;;5.93;3.30;;;;;;;;;;1745399;28;20202;-68
2023/04/15 06:38:10;;;;;;;6.03;3.70;;;;;;;;;;1740743;28;20275;-67
2023/04/15 06:39:02;;;;;;;4.78;3.55;;;;;;;;;;1740731;28;20199;-68
2023/04/15 06:39:53;;;;;;;4.65;3.55;;;;;;;;;;1740508;28;20662;-69
2023/04/15 06:40:45;;;;;;;5.60;3.88;;;;;;;;;;1740471;28;20310;-68
2023/04/15 06:41:36;;;;;;;6.00;3.30;;;;;;;;;;1740752;28;20214;-68
2023/04/15 06:42:28;;;;;;;8.35;3.60;;;;;;;;;;1740734;28;20210;-68
2023/04/15 06:43:20;;;;;;;6.80;4.75;;;;;;;;;;1741201;28;20219;-68
2023/04/15 06:44:12;;;;;;;6.00;3.58;;;;;;;;;;1747519;28;20251;-68
2023/04/15 06:45:04;;;;;;;5.63;2.92;;;;;;;;;;1747456;28;20688;-67
2023/04/15 06:45:56;;;;;;;7.15;3.80;;;;;;;;;;1747399;28;20206;-67
2023/04/15 06:46:47;;;;;;;5.30;3.30;;;;;;;;;;1746186;28;20195;-68
2023/04/15 06:47:39;;;;;;;6.15;3.50;;;;;;;;;;1747201;28;20187;-68
2023/04/15 06:48:30;;;;;;;4.43;3.30;;;;;;;;;;1747428;28;20210;-68
2023/04/15 06:49:24;;;;;;;5.07;3.55;;;;;;;;;;1747413;28;20568;-68
2023/04/15 06:50:17;;;;;;;4.38;2.70;;;;;;;;;;1747378;28;20206;-67
2023/04/15 06:51:09;;;;;;;8.98;3.50;;;;;;;;;;1746547;28;20225;-67
2023/04/15 06:52:00;;;;;;;7.13;3.47;;;;;;;;;;1743971;28;20097;-67
2023/04/15 06:52:53;;;;;;;4.53;3.28;;;;;;;;;;1743805;28;20197;-68
2023/04/15 06:53:44;;;;;;;5.03;3.25;;;;;;;;;;1743699;28;20579;-69
2023/04/15 06:54:36;;;;;;;4.75;3.40;;;;;;;;;;1746692;28;20252;-70
2023/04/15 06:55:27;;;;;;;3.35;3.03;;;;;;;;;;1744372;28;20267;-70
2023/04/15 06:56:19;;;;;;;6.00;3.30;;;;;;;;;;1742425;28;20201;-70
2023/04/15 06:57:10;;;;;;;4.75;2.80;;;;;;;;;;1742680;28;20210;-70
2023/04/15 06:58:02;;;;;;;5.05;3.60;;;;;;;;;;1746413;28;20273;-70
2023/04/15 06:58:53;;;;;;;6.55;3.38;;;;;;;;;;1743952;28;20210;-70
2023/04/15 06:59:47;;;;;;;5.68;3.40;;;;;;;;;;1744621;28;20203;-70
2023/04/15 07:00:39;;;;;;;3.25;2.65;;;;;;;;;;1743074;28;20221;-69
2023/04/15 07:01:31;;;;;;;6.88;3.35;;;;;;;;;;1742998;28;20582;-70
2023/04/15 07:02:22;;;;;;;5.10;2.80;;;;;;;;;;1744439;28;20210;-70
2023/04/15 07:03:16;;;;;;;7.60;3.50;;;;;;;;;;1744570;28;20186;-70
2023/04/15 07:04:07;;;;;;;4.55;2.97;;;;;;;;;;1745023;28;20293;-69
2023/04/15 07:05:00;;;;;;;4.80;2.78;;;;;;;;;;1742981;28;20677;-70
2023/04/15 07:05:52;;;;;;;4.22;2.88;;;;;;;;;;1743205;28;20625;-70
2023/04/15 07:06:44;;;;;;;5.90;3.55;;;;;;;;;;1743481;28;20199;-69
2023/04/15 07:07:36;;;;;;;6.15;3.20;;;;;;;;;;1743452;28;20198;-70
2023/04/15 07:08:28;;;;;;;4.47;2.63;;;;;;;;;;1744521;28;20259;-70
2023/04/15 07:09:19;;;;;;;5.90;2.80;;;;;;;;;;1746801;28;20201;-69
2023/04/15 07:10:11;;;;;;;8.98;3.03;;;;;;;;;;1743855;28;20685;-69
2023/04/15 07:11:02;;;;;;;7.65;3.47;;;;;;;;;;1744869;28;20199;-69
2023/04/15 07:11:55;;;;;;;4.90;2.97;;;;;;;;;;1743475;28;20194;-70
2023/04/15 07:12:46;;;;;;;4.50;3.00;;;;;;;;;;1744288;28;20202;-70
2023/04/15 07:13:38;;;;;;;3.60;2.97;;;;;;;;;;1743721;28;20249;-69
2023/04/15 07:14:29;;;;;;;4.85;2.88;;;;;;;;;;1745469;28;20673;-70
2023/04/15 07:15:22;;;;;;;4.03;2.85;;;;;;;;;;1744495;28;20187;-69
2023/04/15 07:16:13;;;;;;;5.45;3.55;;;;;;;;;;1743058;28;20198;-69
2023/04/15 07:17:05;;;;;;;4.38;2.75;;;;;;;;;;1742425;28;20206;-69
2023/04/15 07:17:56;;;;;;;5.82;2.30;;;;;;;;;;1743798;28;20203;-70
2023/04/15 07:18:49;;;;;;;7.15;2.90;;;;;;;;;;1744034;28;20282;-69
2023/04/15 07:19:40;;;;;;;6.28;2.90;;;;;;;;;;1743032;28;20195;-69
2023/04/15 07:20:33;;;;;;;5.85;2.67;;;;;;;;;;1742943;28;20226;-69
2023/04/15 07:21:26;;;;;;;6.55;2.45;;;;;;;;;;1743847;28;20229;-70
2023/04/15 07:22:18;;;;;;;8.07;3.00;;;;;;;;;;1743705;28;20190;-68
2023/04/15 07:23:09;;;;;;;10.68;3.53;;;;;;;;;;1744924;28;20211;-70
2023/04/15 07:24:01;;;;;;;6.35;2.70;;;;;;;;;;1743221;28;20191;-70
2023/04/15 07:24:52;;;;;;;12.98;3.30;;;;;;;;;;1744188;28;20191;-68
2023/04/15 07:25:44;;;;;;;6.60;2.90;;;;;;;;;;1745336;28;20190;-69
2023/04/15 07:26:35;;;;;;;54.15;6.15;;;;;;;;;;1743887;28;20203;-70
2023/04/15 07:27:27;;;;;;;93.30;9.48;;;;;;;;;;1745153;28;20198;-69
2023/04/15 07:28:19;;;;;;;10.98;3.80;;;;;;;;;;1744485;28;20199;-69
2023/04/15 07:29:11;;;;;;;17.13;5.03;;;;;;;;;;1745270;28;20195;-69
2023/04/15 07:30:02;;;;;;;6.13;3.40;;;;;;;;;;1743449;28;20198;-69
2023/04/15 07:30:54;;;;;;;10.80;5.32;;;;;;;;;;1743406;28;20279;-68
2023/04/15 07:31:47;;;;;;;13.18;5.97;;;;;;;;;;1744193;28;20391;-70
2023/04/15 07:32:39;;;;;;;10.80;6.75;;;;;;;;;;1746114;28;20668;-69
2023/04/15 07:33:30;;;;;;;8.32;6.40;;;;;;;;;;1744246;28;20280;-69
2023/04/15 07:34:22;;;;;;;11.88;6.82;;;;;;;;;;1744321;28;20190;-70
2023/04/15 07:35:13;;;;;;;12.55;7.22;;;;;;;;;;1743726;28;20222;-70
2023/04/15 07:36:07;;;;;;;11.35;7.60;;;;;;;;;;1742764;28;20194;-70
2023/04/15 07:36:58;;;;;;;11.50;7.10;;;;;;;;;;1744551;28;20702;-70
2023/04/15 07:37:51;;;;;;;10.50;8.02;;;;;;;;;;1742334;28;20194;-70
2023/04/15 07:38:43;;;;;;;18.45;8.35;;;;;;;;;;1742886;28;20198;-70
2023/04/15 07:39:34;;;;;;;11.55;7.55;;;;;;;;;;1743768;28;20199;-70
2023/04/15 07:40:27;;;;;;;10.68;7.68;;;;;;;;;;1742848;28;20198;-69
2023/04/15 07:41:18;;;;;;;11.82;7.25;;;;;;;;;;1744052;28;20293;-68
2023/04/15 07:42:10;;;;;;;13.82;7.25;;;;;;;;;;1742411;28;20214;-70
2023/04/15 07:43:02;;;;;;;10.20;7.30;;;;;;;;;;1743567;28;20650;-69
2023/04/15 07:43:54;;;;;;;11.75;6.88;;;;;;;;;;1745687;28;20186;-69
2023/04/15 07:44:45;;;;;;;9.18;6.82;;;;;;;;;;1742774;28;20650;-70
2023/04/15 07:45:37;;;;;;;9.70;5.47;;;;;;;;;;1742562;28;20198;-70
2023/04/15 07:46:28;;;;;;;10.60;4.85;;;;;;;;;;1743713;28;20227;-71
2023/04/15 07:47:21;;;;;;;10.50;6.15;;;;;;;;;;1744923;28;20191;-70
2023/04/15 07:48:12;;;;;;;6.80;6.07;;;;;;;;;;1743767;28;20256;-69
2023/04/15 07:49:04;;;;;;;8.05;5.97;;;;;;;;;;1745506;28;20195;-70
2023/04/15 07:49:55;;;;;;;10.88;6.70;;;;;;;;;;1741855;28;20230;-70
2023/04/15 07:50:47;;;;;;;7.53;6.22;;;;;;;;;;1746906;28;20214;-69
2023/04/15 07:51:40;;;;;;;7.68;6.35;;;;;;;;;;1743748;28;20195;-69
2023/04/15 07:52:37;;;;;;;12.05;7.13;;;;;;;;;;1744102;28;20202;-69
2023/04/15 07:53:31;;;;;;;7.75;5.45;;;;;;;;;;1742034;28;20194;-70
2023/04/15 07:54:24;;;;;;;8.82;6.35;;;;;;;;;;1744526;28;20578;-70
2023/04/15 07:55:18;;;;;;;7.18;5.63;;;;;;;;;;1740696;28;20577;-69
2023/04/15 07:56:10;;;;;;;9.02;5.45;;;;;;;;;;1741383;28;20203;-70
2023/04/15 07:57:02;;;;;;;7.65;5.68;;;;;;;;;;1740582;28;20586;-70
2023/04/15 07:57:54;;;;;;;11.30;5.15;;;;;;;;;;1741458;28;20199;-70
2023/04/15 07:58:45;;;;;;;10.45;5.10;;;;;;;;;;1741486;28;20226;-71
2023/04/15 07:59:37;;;;;;;9.07;5.03;;;;;;;;;;1747776;28;20272;-70
2023/04/15 08:00:28;;;;;;;9.05;5.22;;;;;;;;;;1748231;28;20213;-69
2023/04/15 08:01:20;;;;;;;6.35;5.05;;;;;;;;;;1747818;28;20194;-72
2023/04/15 08:02:11;;;;;;;5.57;5.00;;;;;;;;;;1748434;28;20206;-71
2023/04/15 08:03:03;;;;;;;7.47;5.30;;;;;;;;;;1747786;28;20195;-71
2023/04/15 08:03:54;;;;;;;6.15;5.55;;;;;;;;;;1746806;28;20186;-70
2023/04/15 08:04:46;;;;;;;9.00;5.50;;;;;;;;;;1748392;28;20202;-70
2023/04/15 08:05:37;;;;;;;6.82;5.22;;;;;;;;;;1747990;28;20833;-70
2023/04/15 08:06:29;;;;;;;9.50;5.93;;;;;;;;;;1745244;28;20249;-71
2023/04/15 08:07:22;;;;;;;11.10;6.35;;;;;;;;;;1744449;28;20198;-68
2023/04/15 08:08:14;;;;;;;8.85;5.70;;;;;;;;;;1744108;28;20198;-70
2023/04/15 08:09:05;;;;;;;9.52;5.50;;;;;;;;;;1747649;28;20198;-72
2023/04/15 08:09:58;;;;;;;7.57;5.07;;;;;;;;;;1745299;28;20187;-69
2023/04/15 08:10:49;;;;;;;9.77;5.55;;;;;;;;;;1747816;28;20245;-70
2023/04/15 08:11:41;;;;;;;8.85;5.20;;;;;;;;;;1744628;28;20195;-69
2023/04/15 08:12:33;;;;;;;10.38;5.13;;;;;;;;;;1744233;28;20209;-70
2023/04/15 08:13:27;;;;;;;10.43;5.20;;;;;;;;;;1744119;28;20583;-69
2023/04/15 08:14:18;;;;;;;9.60;6.45;;;;;;;;;;1748553;28;20206;-69
2023/04/15 08:15:11;;;;;;;6.05;4.57;;;;;;;;;;1745362;28;20201;-70
2023/04/15 08:16:13;;;;;;;7.97;4.97;;;;;;;;;;1745395;28;20237;-69
2023/04/15 08:17:06;;;;;;;9.57;5.20;;;;;;;;;;1744913;28;20245;-70
2023/04/15 08:17:59;;;;;;;8.35;4.40;;;;;;;;;;1743393;28;20195;-70
2023/04/15 08:18:52;;;;;;;7.72;4.38;;;;;;;;;;1741710;28;20245;-69
2023/04/15 08:19:43;;;;;;;7.93;4.85;;;;;;;;;;1741742;28;20256;-69
2023/04/15 08:20:35;;;;;;;12.13;5.18;;;;;;;;;;1744103;28;20218;-69
2023/04/15 08:21:29;;;;;;;7.38;4.50;;;;;;;;;;1748492;28;20206;-69
2023/04/15 08:22:22;;;;;;;6.60;4.22;;;;;;;;;;1748634;28;20244;-69
2023/04/15 08:23:14;;;;;;;5.88;5.18;;;;;;;;;;1745067;28;20211;-69
2023/04/15 08:24:06;;;;;;;9.43;5.68;;;;;;;;;;1748097;28;20194;-69
2023/04/15 08:24:58;;;;;;;7.00;5.28;;;;;;;;;;1748535;28;20206;-69
2023/04/15 08:25:50;;;;;;;5.95;4.80;;;;;;;;;;1748631;28;20199;-69
2023/04/15 08:26:42;;;;;;;6.05;5.45;;;;;;;;;;1748060;28;20549;-70
2023/04/15 08:27:33;;;;;;;9.13;5.35;;;;;;;;;;1748423;28;20206;-70
2023/04/15 08:28:25;;;;;;;8.63;4.80;;;;;;;;;;1748565;28;20224;-70
2023/04/15 08:29:16;;;;;;;5.57;4.95;;;;;;;;;;1748209;28;20201;-70
2023/04/15 08:30:09;;;;;;;7.00;5.30;;;;;;;;;;1748476;28;20218;-70
2023/04/15 08:31:00;;;;;;;6.60;4.95;;;;;;;;;;1748326;28;20237;-70
2023/04/15 08:31:52;;;;;;;9.20;4.70;;;;;;;;;;1748469;28;20298;-69
2023/04/15 08:32:45;;;;;;;17.52;5.13;;;;;;;;;;1747997;28;20203;-69
2023/04/15 08:33:37;;;;;;;6.80;5.05;;;;;;;;;;1746310;28;20219;-69
2023/04/15 08:34:29;;;;;;;7.10;5.28;;;;;;;;;;1748598;28;20553;-69
2023/04/15 08:35:21;;;;;;;5.50;5.00;;;;;;;;;;1748677;28;20202;-69
2023/04/15 08:36:12;;;;;;;7.50;5.70;;;;;;;;;;1748211;28;20194;-70
2023/04/15 08:37:05;;;;;;;6.47;5.20;;;;;;;;;;1748417;28;20195;-68
2023/04/15 08:37:57;;;;;;;6.40;5.28;;;;;;;;;;1748423;28;20577;-68
2023/04/15 08:38:50;;;;;;;5.72;5.13;;;;;;;;;;1748292;28;20688;-69
2023/04/15 08:39:41;;;;;;;8.95;5.82;;;;;;;;;;1748363;28;20302;-68
2023/04/15 08:40:36;;;;;;;9.23;5.93;;;;;;;;;;1748452;28;20202;-69
2023/04/15 08:41:33;;;;;;;9.98;6.60;;;;;;;;;;1748506;28;20624;-69
2023/04/15 08:42:28;;;;;;;7.45;6.10;;;;;;;;;;1748524;28;20252;-69
2023/04/15 08:43:21;;;;;;;7.50;5.57;;;;;;;;;;1744598;28;20194;-68
2023/04/15 08:44:13;;;;;;;8.13;6.25;;;;;;;;;;1746485;28;20196;-69
2023/04/15 08:45:05;;;;;;;7.75;6.30;;;;;;;;;;1748119;28;20194;-70
2023/04/15 08:45:59;;;;;;;8.07;5.90;;;;;;;;;;1748404;28;20205;-69
2023/04/15 08:46:52;;;;;;;9.95;6.40;;;;;;;;;;1740703;28;20624;-70
2023/04/15 08:47:44;;;;;;;10.25;6.15;;;;;;;;;;1740391;28;20203;-68
2023/04/15 08:48:40;;;;;;;6.15;5.55;;;;;;;;;;1746663;28;20771;-68
2023/04/15 08:49:32;;;;;;;9.63;6.57;;;;;;;;;;1743849;28;20195;-68
2023/04/15 08:50:25;;;;;;;8.98;5.53;;;;;;;;;;1744534;28;20286;-69
2023/04/15 08:51:17;;;;;;;7.43;5.38;;;;;;;;;;1746176;28;20248;-69
2023/04/15 08:52:11;;;;;;;12.77;5.90;;;;;;;;;;1745757;28;20195;-69
2023/04/15 08:53:03;;;;;;;6.38;4.85;;;;;;;;;;1746090;28;20259;-69
2023/04/15 08:53:55;;;;;;;7.95;5.30;;;;;;;;;;1746150;28;20646;-69
2023/04/15 08:54:47;;;;;;;6.57;5.57;;;;;;;;;;1746746;28;20222;-69
2023/04/15 08:55:43;;;;;;;11.50;6.13;;;;;;;;;;1744074;28;20287;-69
2023/04/15 08:56:35;;;;;;;6.80;5.07;;;;;;;;;;1744738;28;20448;-69
2023/04/15 08:57:28;;;;;;;6.20;5.60;;;;;;;;;;1748403;28;20210;-69
2023/04/15 08:58:20;;;;;;;6.10;5.10;;;;;;;;;;1748030;28;20213;-70
2023/04/15 08:59:12;;;;;;;7.63;5.65;;;;;;;;;;1748757;28;20249;-70
2023/04/15 09:00:04;;;;;;;7.57;5.07;;;;;;;;;;1748437;28;20289;-69
2023/04/15 09:00:57;;;;;;;6.88;5.00;;;;;;;;;;1748498;28;20639;-69
2023/04/15 09:01:48;;;;;;;9.00;4.97;;;;;;;;;;1744470;28;20716;-68
2023/04/15 09:02:41;;;;;;;5.18;4.60;;;;;;;;;;1748486;28;20609;-69
2023/04/15 09:03:32;;;;;;;8.45;5.00;;;;;;;;;;1748601;28;20751;-69
2023/04/15 09:04:25;;;;;;;9.90;5.07;;;;;;;;;;1748623;28;20198;-69
2023/04/15 09:05:16;;;;;;;6.40;4.95;;;;;;;;;;1748602;28;20207;-70
2023/04/15 09:06:08;;;;;;;7.00;4.40;;;;;;;;;;1748374;28;20209;-70
2023/04/15 09:07:00;;;;;;;5.70;4.30;;;;;;;;;;1741391;28;20203;-72
2023/04/15 09:07:52;;;;;;;6.30;4.15;;;;;;;;;;1741702;28;20195;-69
2023/04/15 09:08:44;;;;;;;5.00;3.90;;;;;;;;;;1741623;28;20271;-68
2023/04/15 09:09:39;;;;;;;4.93;3.63;;;;;;;;;;1741761;28;20203;-69
2023/04/15 09:10:30;;;;;;;3.95;3.55;;;;;;;;;;1741423;28;20580;-69
2023/04/15 09:11:23;;;;;;;6.43;4.20;;;;;;;;;;1741813;28;20616;-69
2023/04/15 09:12:15;;;;;;;5.68;4.05;;;;;;;;;;1745987;28;20547;-69
2023/04/15 09:13:08;;;;;;;8.52;2.90;;;;;;;;;;1748544;28;20198;-69
2023/04/15 09:13:59;;;;;;;7.20;4.07;;;;;;;;;;1748037;28;20214;-69
2023/04/15 09:14:51;;;;;;;4.00;3.33;;;;;;;;;;1748445;28;20207;-69
2023/04/15 09:15:42;;;;;;;5.15;2.80;;;;;;;;;;1748497;28;20214;-69
2023/04/15 09:16:49;;;;;;;5.78;3.50;;;;;;;;;;1747168;28;20203;-69
2023/04/15 09:17:42;;;;;;;5.22;3.45;;;;;;;;;;1747522;28;20198;-69
2023/04/15 09:18:35;;;;;;;8.07;3.47;;;;;;;;;;1748382;28;20230;-69
2023/04/15 09:19:26;;;;;;;5.30;2.90;;;;;;;;;;1746758;28;20575;-69
2023/04/15 09:20:18;;;;;;;3.85;3.50;;;;;;;;;;1747907;28;20286;-68
2023/04/15 09:21:10;;;;;;;5.38;4.05;;;;;;;;;;1748436;28;20198;-68
2023/04/15 09:22:02;;;;;;;4.72;3.00;;;;;;;;;;1747831;28;20257;-68
2023/04/15 09:22:53;;;;;;;4.78;3.63;;;;;;;;;;1741439;28;20265;-68
2023/04/15 09:23:57;;;;;;;5.13;3.47;;;;;;;;;;1743876;28;20199;-68
2023/04/15 09:24:48;;;;;;;6.43;3.10;;;;;;;;;;1748418;28;20302;-68
2023/04/15 09:25:41;;;;;;;5.38;3.60;;;;;;;;;;1748572;28;20255;-68
2023/04/15 09:26:35;;;;;;;3.83;3.30;;;;;;;;;;1746302;28;20218;-69
2023/04/15 09:27:29;;;;;;;5.75;3.38;;;;;;;;;;1740442;28;20701;-69
2023/04/15 09:28:24;;;;;;;7.22;3.40;;;;;;;;;;1748083;28;20194;-67
2023/04/15 09:29:18;;;;;;;3.30;2.97;;;;;;;;;;1746421;28;20232;-69
2023/04/15 09:30:12;;;;;;;3.58;2.42;;;;;;;;;;1740628;28;20210;-69
2023/04/15 09:31:04;;;;;;;3.50;2.67;;;;;;;;;;1738681;28;20299;-69
2023/04/15 09:31:55;;;;;;;3.90;2.58;;;;;;;;;;1743250;28;20211;-69
2023/04/15 09:32:51;;;;;;;4.13;2.13;;;;;;;;;;1748004;28;20209;-69
2023/04/15 09:33:55;;;;;;;3.17;2.70;;;;;;;;;;1748126;28;20205;-68
2023/04/15 09:34:47;;;;;;;4.95;2.38;;;;;;;;;;1748391;28;20202;-72
2023/04/15 09:35:40;;;;;;;2.13;1.95;;;;;;;;;;1748057;28;20343;-69
2023/04/15 09:36:40;;;;;;;3.15;1.80;;;;;;;;;;1740788;28;20332;-71
2023/04/15 09:37:35;;;;;;;2.45;2.13;;;;;;;;;;1748272;28;20187;-70
2023/04/15 09:38:27;;;;;;;4.57;2.53;;;;;;;;;;1748233;28;20221;-68
2023/04/15 09:39:21;;;;;;;3.38;2.45;;;;;;;;;;1748287;28;20199;-69
2023/04/15 09:40:12;;;;;;;3.70;1.90;;;;;;;;;;1748330;28;20544;-69
2023/04/15 09:41:18;;;;;;;3.45;2.60;;;;;;;;;;1748271;28;20237;-69
2023/04/15 09:42:10;;;;;;;3.65;2.40;;;;;;;;;;1748227;28;20638;-69
2023/04/15 09:43:02;;;;;;;4.40;1.90;;;;;;;;;;1747832;28;20198;-69
2023/04/15 09:43:54;;;;;;;3.50;2.00;;;;;;;;;;1747880;28;20195;-69
2023/04/15 09:44:46;;;;;;;2.85;1.80;;;;;;;;;;1748270;28;20194;-69
2023/04/15 09:45:37;;;;;;;5.75;2.00;;;;;;;;;;1743380;28;20230;-68
2023/04/15 09:46:42;;;;;;;3.13;2.08;;;;;;;;;;1739867;28;20282;-69
2023/04/15 09:47:33;;;;;;;5.78;2.70;;;;;;;;;;1743568;28;20229;-69
2023/04/15 09:48:26;;;;;;;5.15;2.17;;;;;;;;;;1748062;28;20198;-69
2023/04/15 09:49:19;;;;;;;2.83;1.90;;;;;;;;;;1748409;28;20666;-68
2023/04/15 09:50:11;;;;;;;6.20;2.10;;;;;;;;;;1748372;28;20200;-70
2023/04/15 09:51:02;;;;;;;4.18;1.95;;;;;;;;;;1748318;28;20219;-69
2023/04/15 09:51:58;;;;;;;2.55;1.80;;;;;;;;;;1747916;28;20252;-69
2023/04/15 09:52:49;;;;;;;3.33;2.13;;;;;;;;;;1739962;28;20210;-70
2023/04/15 09:53:41;;;;;;;4.40;1.90;;;;;;;;;;1744090;28;20203;-69
2023/04/15 09:54:35;;;;;;;2.97;1.90;;;;;;;;;;1748164;28;20222;-70
2023/04/15 09:55:27;;;;;;;2.45;1.60;;;;;;;;;;1748298;28;20654;-71
2023/04/15 09:56:22;;;;;;;4.55;2.10;;;;;;;;;;1747365;28;20684;-69
2023/04/15 09:57:14;;;;;;;5.35;1.92;;;;;;;;;;1745758;28;20198;-69
2023/04/15 09:58:09;;;;;;;4.18;1.92;;;;;;;;;;1741351;28;20246;-68
2023/04/15 09:59:01;;;;;;;4.13;1.80;;;;;;;;;;1741514;28;20282;-68
2023/04/15 09:59:52;;;;;;;4.15;1.58;;;;;;;;;;1741395;28;20691;-68
2023/04/15 10:00:44;;;;;;;2.70;1.60;;;;;;;;;;1741376;28;20273;-69
2023/04/15 10:01:35;;;;;;;3.47;1.50;;;;;;;;;;1741315;28;20785;-68
2023/04/15 10:02:28;;;;;;;2.78;1.70;;;;;;;;;;1744262;28;20634;-68
2023/04/15 10:03:21;;;;;;;2.67;1.85;;;;;;;;;;1747755;28;20187;-68
2023/04/15 10:04:13;;;;;;;3.10;1.85;;;;;;;;;;1747793;28;20225;-68
2023/04/15 10:05:06;;;;;;;3.85;2.58;;;;;;;;;;1747895;28;20202;-66
2023/04/15 10:05:58;;;;;;;3.47;2.25;;;;;;;;;;1748019;28;20199;-67
2023/04/15 10:06:50;;;;;;;3.35;2.40;;;;;;;;;;1743372;28;20206;-67
2023/04/15 10:07:42;;;;;;;3.45;2.67;;;;;;;;;;1743222;28;20197;-66
2023/04/15 10:08:34;;;;;;;5.32;3.22;;;;;;;;;;1741073;28;20667;-66
2023/04/15 10:09:27;;;;;;;3.17;2.20;;;;;;;;;;1744485;28;20207;-66
2023/04/15 10:10:20;;;;;;;3.70;2.10;;;;;;;;;;1748055;28;20202;-66
2023/04/15 10:11:12;;;;;;;3.03;2.40;;;;;;;;;;1748098;28;20205;-66
2023/04/15 10:12:04;;;;;;;2.67;2.13;;;;;;;;;;1748078;28;20728;-66
2023/04/15 10:12:57;;;;;;;3.97;1.95;;;;;;;;;;1748062;28;20209;-66